Pagrindinis puslapis
METAR-TAF:

METAR-TAF

Oro uostai :

Oro pajėgų bazė

Linšiopingas, Švedija

platuma: 58-24N, ilguma: 015-31E, Aukštis: 93 m

Dabartinis oras

Ataskaita buvo paskelbta 1 valandą ir 28 minutes, ne 12:50 UTC
Vėjas 8 kt iš Šiaurės
Temperatūra 24°C
Drėgmė 36%
Slėgis 1026 hPa
Matomumas 10 km arba daugiau
nėra debesų žemiau 1500 m ir nėra kamuolinių lietaus debesų

METAR: ESCF 011250Z 01008KT CAVOK 24/08 Q1026

Laikas: 16:18 (14:18 UTC)

Prognozė

Ataskaita buvo paskelbta 2 valandos ir 48 minutes, ne 11:30 UTC
Prognozė galioja nuo 01 metu 12 UTC su 01 metu 15 UTC
Vėjas 7 kt iš Šiaurės/Šiaurės Rytų su gūsio iki 13 kt
Matomumas 10 km arba daugiau
nėra debesų žemiau 1500 m ir nėra kamuolinių lietaus debesų

TAF: ESCF 011130Z 0112/0115 03007G13KT CAVOK RMK MIL

Orai ataskaitas ir orų prognozės (METAR, TAF).

turimą stotys yra geltonos ir raudonos taškus žemėlapyje.

Perkelti pele per norėdami pamatyti stoties vardą.

Tada spustelėkite, norėdami matyti oro stebėjimo ir prognozės.

Norėdami pakeisti žemėlapį: spustelėkite ant žalios mygtukų su juodo kryžiaus žemyn,; žalią mygtuką su brūkšneliu, jei norite nutolinti; arba žalių rodyklių gretimoms žemėlapius.


METAR-TAF: